Date,TemperatureHighF,TemperatureAvgF,TemperatureLowF,DewpointHighF,DewpointAvgF,DewpointLowF,HumidityHigh,HumidityAvg,HumidityLow,PressureMaxIn,PressureMinIn,WindSpeedMaxMPH,WindSpeedAvgMPH,GustSpeedMaxMPH,PrecipitationSumIn
2012-1-1,63,55,40,58,39,22,89,59,33,30.37,30.05,8,1,15,0.01
2012-1-2,44,35,25,22,6,-6,49,33,21,30.42,30.25,8,2,17,0.00
2012-1-3,35,26,19,11,5,0,56,43,25,30.59,30.39,8,1,14,0.00
2012-1-4,53,36,22,35,19,7,82,55,24,30.42,30.21,5,0,11,0.00
2012-1-5,59,41,28,40,29,3,94,68,34,30.57,30.16,4,0,6,0.00
2012-1-6,68,50,32,49,38,8,84,68,42,30.39,30.05,4,0,11,0.00
2012-1-7,59,56,50,57,53,5,96,91,63,30.55,30.04,3,0,6,0.39
2012-1-8,60,52,48,58,50,26,98,94,91,30.28,30.10,3,1,4,0.14
2012-1-9,60,55,51,59,54,10,98,97,96,30.42,30.12,3,0,5,0.06
2012-1-10,58,54,51,57,53,48,99,96,93,30.23,29.78,3,0,6,0.11
2012-1-11,58,52,47,57,51,45,97,95,90,30.17,29.57,4,0,9,1.75
2012-1-12,58,39,26,48,34,11,97,84,52,30.11,29.70,8,0,17,0.11
2012-1-13,58,29,25,30,15,10,87,56,43,30.27,29.72,3,0,7,0.00
2012-1-14,25,25,25,15,15,15,66,66,66,30.27,30.27,0,0,0,0.00
2012-1-15,25,25,25,15,15,15,66,66,66,30.27,30.27,0,0,0,0.00
2012-1-16,25,25,25,15,15,15,66,66,66,30.27,30.27,0,0,0,0.00
2012-1-17,25,25,25,15,15,15,66,66,66,30.27,30.27,0,0,0,0.00
2012-1-18,25,25,25,15,15,15,66,66,66,30.27,30.27,0,0,0,0.00
2012-1-19,57,42,25,36,24,15,78,53,27,30.27,29.78,2,0,6,0.90
2012-1-20,65,56,49,62,51,34,94,82,51,29.82,29.67,2,0,4,0.01
2012-1-21,66,50,39,62,46,37,94,89,71,29.90,29.63,7,2,14,0.54
2012-1-22,60,54,41,56,51,39,96,91,85,29.89,29.65,4,1,12,0.00
2012-1-23,64,57,42,61,47,36,95,72,44,29.91,29.56,4,0,11,1.88
2012-1-24,60,46,33,40,32,26,93,63,30,30.07,29.90,0,0,0,0.00
2012-1-25,73,57,42,51,40,31,70,56,36,30.04,29.77,0,0,0,0.00
2012-1-26,62,60,50,59,56,47,93,88,69,29.78,29.45,0,0,0,0.89
2012-1-27,53,45,37,46,38,32,90,76,57,29.88,29.57,0,0,0,0.01
2012-1-28,54,43,28,40,24,5,91,57,20,30.17,29.85,0,0,1,0.00
2012-1-29,56,38,23,27,17,8,72,48,19,30.25,30.13,0,0,0,0.00
2012-1-30,65,47,30,24,19,14,56,38,18,30.22,30.09,0,0,1,0.00
2012-1-31,68,55,45,46,28,19,71,39,22,30.15,30.01,0,0,0,0.01
2012-2-1,60,57,53,59,55,46,99,94,71,30.01,29.86,0,0,0,0.86
2012-2-2,65,54,47,53,41,31,99,67,32,30.10,29.92,0,0,1,0.00
2012-2-3,62,53,41,47,37,32,86,57,38,30.13,30.01,0,0,0,0.05
2012-2-4,62,56,50,58,53,46,99,89,75,30.01,29.83,0,0,0,0.52
2012-2-5,61,54,44,57,49,41,99,84,62,30.00,29.85,0,0,0,0.04
2012-2-6,56,46,38,44,39,34,99,78,51,30.06,29.98,0,0,1,0.00
2012-2-7,58,46,32,39,31,25,94,62,31,30.07,29.96,1,0,3,0.00
2012-2-8,52,45,38,37,34,31,82,66,51,30.14,30.00,0,0,0,0.00
2012-2-9,46,38,33,32,28,25,77,67,53,30.14,29.99,0,0,0,0.00
2012-2-10,48,37,30,37,30,25,94,77,52,30.01,29.84,0,0,0,0.04
2012-2-11,38,30,22,37,11,-8,94,51,22,30.28,29.81,0,0,1,0.01
2012-2-12,41,27,17,10,4,-1,57,40,22,30.32,30.14,0,0,1,0.00
2012-2-13,50,34,19,33,19,10,83,56,31,30.14,29.82,0,0,0,0.07
2012-2-14,48,43,37,45,40,33,94,90,83,29.94,29.74,0,0,0,0.09
2012-2-15,64,51,35,49,42,33,97,74,48,30.02,29.84,0,0,1,0.12
2012-2-16,65,55,48,55,48,41,95,77,52,29.98,29.84,0,0,1,0.14
2012-2-17,63,51,41,42,37,28,86,63,31,30.00,29.88,2,0,4,0.00
2012-2-18,60,50,39,44,37,9,81,63,43,30.17,29.65,0,0,0,0.01
2012-2-19,59,42,31,43,37,16,94,84,69,30.19,29.58,0,0,0,0.47
2012-2-20,64,43,25,36,28,-5,90,63,20,30.17,29.59,0,0,2,0.00
2012-2-21,70,55,43,46,32,14,78,50,16,30.18,29.78,0,0,0,0.05
2012-2-22,55,52,42,53,47,24,98,85,48,30.00,29.69,1,0,3,0.00
2012-2-23,55,55,55,53,53,53,94,94,94,29.71,29.71,0,0,0,0.00
2012-2-24,55,55,55,53,53,53,94,94,94,29.71,29.71,0,0,0,0.00
2012-2-25,55,55,55,53,53,53,94,94,94,29.71,29.71,0,0,0,0.00
2012-2-26,55,55,55,53,53,53,94,94,94,29.71,29.71,0,0,0,0.00
2012-2-27,55,55,55,53,53,53,94,94,94,29.71,29.71,0,0,0,0.00
2012-2-28,55,55,55,53,53,53,94,94,94,29.71,29.71,0,0,0,0.00
2012-2-29,55,55,55,53,53,53,94,94,94,29.71,29.71,0,0,0,0.00
2012-3-1,55,55,55,53,53,53,94,94,94,29.71,29.71,0,0,0,0.00
2012-3-2,76,59,55,62,54,43,94,86,59,30.05,29.71,0,0,0,0.24
2012-3-3,58,48,39,45,26,14,75,46,21,30.27,30.04,0,0,1,0.00
2012-3-4,54,45,29,27,22,18,74,43,27,30.36,30.22,0,0,0,0.00
2012-3-5,56,47,35,31,21,10,57,39,20,30.74,30.26,0,0,1,0.00
2012-3-6,71,52,34,28,20,12,61,34,14,30.78,30.63,2,0,4,0.00
2012-3-7,76,62,50,49,44,28,77,55,39,30.72,30.55,0,0,0,0.00
2012-3-8,75,62,49,61,53,48,99,74,53,30.56,30.35,0,0,0,1.02
2012-3-9,61,48,40,49,32,22,99,60,26,30.71,30.52,0,0,1,0.27
2012-3-10,74,53,36,36,28,22,62,43,19,30.73,30.58,0,0,2,0.00
2012-3-11,71,61,49,53,43,30,67,52,46,30.70,30.52,2,0,4,0.00
2012-3-12,70,64,61,61,58,52,90,81,66,30.55,30.43,0,0,0,0.00
2012-3-13,85,70,60,65,59,52,95,73,37,30.53,30.42,0,0,1,0.00
2012-3-14,87,68,54,66,58,51,99,75,34,30.57,30.45,0,0,1,0.00
2012-3-15,89,73,57,67,58,52,99,66,34,30.58,30.41,0,0,1,0.00
2012-3-16,79,79,79,54,54,54,45,45,45,30.43,30.43,0,0,0,0.00
2012-3-17,79,79,79,54,54,54,45,45,45,30.43,30.43,0,0,0,0.00
2012-3-18,79,76,65,54,53,45,60,46,39,30.43,29.92,0,0,2,0.89
2012-3-19,89,72,61,58,54,49,75,56,31,29.99,29.83,1,0,3,0.00
2012-3-20,90,74,62,60,55,50,79,54,32,29.91,29.79,1,0,10,0.00
2012-3-21,83,73,64,62,56,51,78,59,39,29.93,29.83,3,0,12,0.00
2012-3-22,70,70,70,57,57,57,63,63,63,29.91,29.91,0,0,2,0.00
2012-3-23,83,71,62,69,57,45,99,65,39,30.05,29.78,0,0,2,0.76
2012-3-24,72,58,48,55,49,45,97,75,43,29.88,29.77,0,0,1,0.12
2012-3-25,76,59,44,58,50,44,99,77,43,29.95,29.84,2,0,2,0.00
2012-3-26,80,65,48,57,50,45,99,65,33,30.04,29.93,4,0,8,0.00
2012-3-27,88,68,51,55,49,44,83,55,29,30.11,30.01,2,0,4,0.00
2012-3-28,85,70,60,61,54,50,82,60,33,30.09,29.92,2,0,4,0.00
2012-3-29,84,68,56,64,57,52,97,71,37,29.98,29.85,2,0,3,0.00
2012-3-30,78,66,60,69,61,56,95,87,66,29.91,29.75,0,0,1,0.09
2012-3-31,85,66,58,67,62,58,99,87,51,29.84,29.73,0,0,2,0.02
2012-4-1,89,69,54,66,60,53,99,76,42,29.83,29.70,2,0,5,0.01
2012-4-2,90,73,60,69,62,59,99,73,39,29.83,29.70,4,0,7,0.00
2012-4-3,87,72,58,65,60,56,97,71,40,29.92,29.79,2,0,4,0.00
2012-4-4,85,69,59,67,61,55,97,78,43,29.83,29.64,4,0,5,0.06
2012-4-5,78,65,58,66,58,48,99,83,40,29.73,29.57,4,0,6,0.22
2012-4-6,70,58,48,54,43,37,89,60,34,30.03,29.73,6,1,14,0.00
2012-4-7,78,60,42,54,47,38,93,65,37,30.17,30.02,0,0,1,0.00
2012-4-8,77,62,50,54,49,43,99,66,35,30.16,30.06,0,0,1,0.00
2012-4-9,77,60,42,45,39,29,90,54,22,30.11,29.97,0,0,1,0.00
2012-4-10,51,46,46,43,43,42,88,87,75,30.01,29.97,0,0,0,0.00
2012-4-11,46,46,46,43,43,43,88,88,88,29.98,29.98,0,0,0,0.00
2012-4-12,71,56,34,38,33,27,83,47,23,30.04,29.88,0,0,0,0.00
2012-4-13,82,61,42,62,40,30,94,54,21,29.98,29.52,0,0,0,0.22
2012-4-14,85,69,56,58,50,42,70,52,39,29.99,29.84,0,0,0,0.00
2012-4-15,86,72,61,64,60,54,84,68,45,29.91,29.78,0,0,0,0.00
2012-4-16,83,71,63,67,62,57,94,75,47,29.98,29.78,0,0,1,0.13
2012-4-17,65,58,54,60,55,50,97,88,76,30.03,29.88,0,0,0,0.25
2012-4-18,76,62,52,55,50,46,92,69,41,29.91,29.78,2,0,4,0.02
2012-4-19,85,65,48,57,52,46,94,66,37,29.83,29.69,0,0,1,0.00
2012-4-20,83,67,57,64,58,38,95,76,39,29.97,29.56,0,0,1,0.00
2012-4-21,64,56,50,59,52,46,96,85,68,29.95,29.56,0,0,0,0.00
2012-4-22,77,55,43,46,42,37,97,65,39,29.97,29.56,0,0,1,0.00
2012-4-23,63,55,41,42,29,14,79,43,18,29.92,29.59,0,0,0,0.00
2012-4-24,76,57,37,45,38,31,92,55,27,29.92,29.92,0,0,1,0.00
2012-4-25,89,69,53,61,54,44,79,60,39,29.92,29.92,0,0,1,0.00
2012-4-26,82,73,66,66,62,56,87,70,54,29.92,29.92,0,0,0,0.00
2012-4-27,83,71,65,72,65,62,97,82,57,29.92,29.92,0,0,0,0.37
2012-4-28,88,73,61,66,61,56,98,72,39,29.92,29.92,2,0,4,0.01
2012-4-29,90,75,62,66,60,54,93,66,33,29.92,29.92,0,0,2,0.00
2012-4-30,90,75,59,66,62,57,95,68,40,29.92,29.92,0,0,2,0.00
2012-5-1,94,77,61,68,63,59,94,66,37,29.92,29.92,0,0,1,0.00
2012-5-2,97,79,66,69,64,60,92,65,36,29.92,29.92,0,0,2,0.00
2012-5-3,74,69,69,67,66,64,90,89,78,29.92,29.92,0,0,0,0.00
2012-5-4,84,70,68,69,66,66,93,89,62,29.92,29.92,0,0,0,0.53
2012-5-5,90,77,64,72,68,63,99,77,48,29.92,29.92,2,0,4,0.01
2012-5-6,93,77,68,71,64,59,95,70,36,29.92,29.92,4,0,5,0.02
2012-5-7,84,71,63,70,65,60,96,81,60,29.92,29.92,1,0,2,0.00
2012-5-8,84,72,63,69,64,60,99,78,52,29.92,29.92,4,0,7,0.00
2012-5-9,80,67,57,60,52,35,92,63,25,29.92,29.92,4,0,10,0.08
2012-5-10,80,65,48,52,45,39,94,54,27,29.92,29.92,0,0,0,0.00
2012-5-11,78,69,50,53,46,41,86,51,30,29.92,29.92,0,0,0,0.00
2012-5-12,77,71,65,64,56,53,93,63,54,29.92,29.92,0,0,0,0.12
2012-5-13,66,66,66,65,65,64,97,95,93,29.92,29.92,0,0,0,0.24
2012-5-14,69,65,63,66,64,62,97,96,92,29.92,29.92,0,0,0,0.24
2012-5-15,79,68,62,66,62,58,96,84,50,29.92,29.92,0,0,0,0.24
2012-5-16,84,70,56,58,54,50,98,68,34,29.92,29.92,0,0,0,0.24
2012-5-17,91,74,58,56,54,50,93,62,32,29.92,29.92,0,0,0,0.24
2012-5-18,91,78,65,60,59,55,81,58,32,29.92,29.92,0,0,0,0.53
2012-5-19,90,76,64,61,60,60,91,66,40,29.92,29.92,0,0,0,0.07
2012-5-20,86,75,66,61,60,59,83,64,44,29.92,29.92,0,0,0,0.00
2012-5-21,75,72,64,66,63,59,91,73,69,29.92,29.92,0,0,0,0.26
2012-5-22,71,67,64,63,61,56,91,84,60,29.92,29.92,0,0,0,0.07
2012-5-23,84,71,66,60,57,53,79,64,37,29.92,29.92,0,0,0,0.07
2012-5-24,91,72,64,63,57,53,80,63,37,29.92,29.92,0,0,0,0.00
2012-5-25,97,81,67,71,65,61,90,63,34,29.92,29.92,0,0,0,0.00
2012-5-26,99,82,66,71,64,56,96,62,29,29.92,29.92,0,0,0,0.00
2012-5-27,99,84,68,70,66,62,90,61,35,29.92,29.92,0,0,0,0.00
2012-5-28,98,84,75,69,66,61,74,58,34,29.92,29.92,0,0,1,0.00
2012-5-29,98,82,69,70,66,58,86,61,35,29.92,29.92,0,0,0,0.00
2012-5-30,97,79,62,68,58,22,97,57,11,29.92,29.92,0,0,0,0.00
2012-5-31,95,79,70,69,63,58,82,62,36,29.92,29.92,0,0,0,0.00
2012-6-1,74,67,56,65,56,48,92,69,47,29.92,29.92,0,0,0,0.05
2012-6-2,84,67,51,57,52,43,97,64,38,29.92,29.92,0,0,0,0.00
2012-6-3,92,75,58,71,62,55,94,70,40,29.92,29.92,0,0,0,0.05
2012-6-4,83,72,66,71,68,66,99,89,65,29.92,29.92,0,0,0,0.93
2012-6-5,87,74,68,70,65,55,98,75,40,29.92,29.92,0,0,0,0.18
2012-6-6,85,73,61,57,54,51,77,54,33,29.92,29.92,0,0,2,0.00
2012-6-7,88,74,60,66,58,53,81,58,34,29.92,29.92,1,0,2,0.00
2012-6-8,92,76,61,63,58,53,85,57,29,29.92,29.92,0,0,2,0.53
2012-6-9,90,77,67,66,60,54,80,59,34,29.92,29.92,0,0,1,0.01
2012-6-10,77,72,68,73,68,60,97,89,70,29.92,29.92,0,0,2,0.32
2012-6-11,91,76,68,76,71,65,98,85,58,29.92,29.92,2,0,4,0.11
2012-6-12,87,76,66,70,67,64,98,77,50,29.92,29.92,4,0,8,0.00
2012-6-13,92,78,64,75,59,52,86,56,30,29.92,29.92,0,0,2,0.00
2012-6-14,97,80,63,70,62,56,83,59,32,29.92,29.92,0,0,2,0.00
2012-6-15,97,81,69,69,66,62,93,65,40,29.92,29.92,0,0,0,0.00
2012-6-16,94,80,70,66,63,60,83,61,39,29.92,29.92,0,0,0,0.00
2012-6-17,82,77,64,64,64,60,89,65,56,29.92,29.92,0,0,0,0.00
2012-6-18,82,82,82,64,64,64,57,57,57,29.92,29.92,0,0,0,0.00
2012-6-19,82,82,82,64,64,64,57,57,57,29.92,29.92,0,0,0,0.00
2012-6-20,89,82,76,65,64,60,71,57,42,29.92,29.92,0,0,0,0.00
2012-6-21,100,74,69,66,63,58,83,73,28,29.92,29.92,1,0,3,0.00
2012-6-22,99,84,70,68,63,54,86,55,26,29.92,29.92,1,0,2,0.00
2012-6-23,104,86,72,66,57,30,71,45,12,29.92,29.92,0,0,0,0.00
2012-6-24,103,86,69,68,58,30,67,45,15,29.92,29.92,0,0,0,0.00
2012-6-25,103,83,70,71,64,57,78,58,26,29.92,29.92,0,0,0,0.00
2012-6-26,81,76,71,63,60,56,62,58,53,29.92,29.92,0,0,0,0.00
2012-6-28,102,86,77,57,51,30,51,35,12,29.92,29.92,0,0,0,0.00
2012-6-29,111,90,70,68,58,32,79,44,11,29.92,29.92,0,0,0,0.00
2012-6-30,110,92,74,70,64,37,82,48,16,29.92,29.92,0,0,0,0.00
2012-7-1,110,92,76,72,66,54,82,49,21,29.92,29.92,0,0,0,0.07
2012-7-2,101,87,76,72,67,62,74,54,34,29.92,29.92,0,0,0,0.00
2012-7-3,104,88,73,74,57,28,83,46,11,29.92,29.92,0,0,0,0.00
2012-7-4,104,86,74,74,67,58,92,58,26,29.92,29.92,0,0,1,0.12
2012-7-5,99,89,72,74,69,66,93,59,37,29.92,29.92,0,0,2,0.01
2012-7-6,99,99,99,67,67,67,38,38,38,29.92,29.92,0,0,0,0.01
2012-7-7,99,99,99,67,67,67,38,38,38,29.92,29.92,0,0,0,0.01
2012-7-8,99,99,99,67,67,67,38,38,38,29.92,29.92,0,0,0,0.01
2012-7-9,99,99,99,67,67,67,38,38,38,29.92,29.92,0,0,0,0.01
2012-7-10,99,99,99,67,67,67,38,38,38,29.92,29.92,0,0,0,0.01
2012-7-11,99,99,99,67,67,67,38,38,38,29.92,29.92,0,0,0,0.01
2012-7-12,99,99,99,67,67,67,38,38,38,29.92,29.92,0,0,0,0.01
2012-7-13,99,99,99,67,67,67,38,38,38,29.92,29.92,0,0,0,0.01
2012-7-14,99,99,99,67,67,67,38,38,38,29.92,29.92,0,0,0,0.01
2012-7-15,99,99,99,67,67,67,38,38,38,29.92,29.92,0,0,0,0.01
2012-7-16,99,99,99,67,67,67,38,38,38,29.92,29.92,0,0,0,0.01
2012-7-17,99,96,79,74,68,67,81,45,38,29.92,29.92,0,0,0,2.67
2012-7-18,92,78,73,77,73,68,97,85,59,29.92,29.92,0,0,1,0.12
2012-7-19,97,81,72,79,74,71,98,82,51,29.92,29.92,0,0,2,0.00
2012-7-20,93,82,72,78,75,70,97,80,58,29.92,29.92,2,0,7,0.13
2012-7-21,96,82,73,79,75,70,97,80,51,29.92,29.92,1,0,3,0.06
2012-7-22,92,82,71,76,72,69,95,76,55,29.92,29.92,6,0,14,0.01
2012-7-23,82,82,82,71,71,71,71,71,71,29.92,29.92,0,0,0,0.01
2012-7-24,82,82,82,71,71,71,71,71,71,29.92,29.92,0,0,0,0.01
2012-7-25,82,82,82,71,71,71,71,71,71,29.92,29.92,0,0,0,0.01
2012-7-26,98,84,81,74,72,69,79,68,43,29.92,29.92,0,0,4,0.01
2012-7-27,95,81,74,77,73,66,93,78,49,29.92,29.92,0,0,2,0.02
2012-7-28,99,81,69,79,72,67,98,78,40,29.92,29.92,2,0,5,0.24
2012-7-29,93,80,67,70,66,63,95,67,43,29.92,29.92,3,0,4,0.00
2012-7-30,98,83,70,73,69,65,89,66,41,29.92,29.92,2,0,4,0.00
2012-7-31,97,84,73,77,74,70,93,73,49,29.92,29.92,4,0,11,0.22
2012-8-1,102,85,75,79,72,66,97,71,36,29.92,29.92,5,0,10,0.01
2012-8-2,100,81,71,74,71,68,93,75,39,29.92,29.92,5,0,14,0.00
2012-8-3,93,81,74,79,75,70,94,84,62,29.92,29.92,1,0,4,0.01
2012-8-4,98,80,74,76,74,70,97,82,46,29.92,29.92,1,0,4,1.32
2012-8-5,90,79,74,78,74,72,95,86,64,29.92,29.92,0,0,1,0.01
2012-8-6,88,80,73,78,74,72,98,84,63,29.92,29.92,0,0,1,0.19
2012-8-10,71,71,71,70,70,70,96,96,95,29.92,29.92,0,0,1,1.29
2012-8-11,86,74,64,70,60,54,96,67,37,29.92,29.92,3,0,5,0.00
2012-8-12,88,72,57,63,57,51,98,65,34,29.92,29.92,7,0,14,0.00
2012-8-13,83,72,64,75,66,58,96,82,55,29.92,29.92,5,0,11,0.80
2012-8-14,91,78,68,75,69,64,99,78,45,29.92,29.92,3,0,4,0.00
2012-8-15,88,77,69,71,68,63,96,76,46,29.92,29.92,0,0,3,0.00
2012-8-16,95,80,67,74,70,66,99,75,45,29.92,29.92,1,0,8,0.00
2012-8-17,87,75,67,72,69,65,99,83,56,29.92,29.92,8,0,21,0.70
2012-8-18,83,76,70,71,68,64,96,79,59,29.92,29.92,2,0,4,0.12
2012-8-19,88,75,67,72,64,54,99,74,36,29.92,29.92,4,0,7,0.40
2012-8-20,88,74,60,61,57,50,94,62,32,29.92,29.92,2,0,4,0.00
2012-8-21,87,73,61,64,57,49,91,63,32,29.92,29.92,3,0,8,0.00
2012-8-22,90,74,60,65,58,51,95,64,31,29.92,29.92,4,0,15,0.00
2012-8-23,88,71,62,68,62,59,94,76,42,29.92,29.92,4,0,12,0.00
2012-8-26,95,86,72,69,65,60,80,53,35,29.92,29.92,3,0,14,0.00
2012-8-27,94,80,67,70,65,60,92,65,36,29.92,29.92,6,0,18,0.00
2012-8-28,90,80,70,74,69,64,85,71,53,29.92,29.92,3,0,18,0.00
2012-8-29,96,82,72,74,70,66,93,71,41,29.92,29.92,7,0,29,0.00
2012-8-30,86,80,76,74,72,71,88,80,65,29.92,29.92,1,0,4,0.00
2012-8-31,92,81,76,79,74,72,91,79,54,29.92,29.92,1,0,2,0.12
2012-9-1,89,80,74,80,74,72,95,83,63,29.92,29.92,0,0,1,0.05
2012-9-2,90,76,70,77,73,68,98,89,66,29.92,29.92,0,0,1,0.39
2012-9-3,82,75,69,76,72,69,99,93,80,29.92,29.92,0,0,0,0.02
2012-9-4,91,80,74,78,75,73,98,86,58,29.92,29.92,0,0,4,0.01
2012-9-5,93,84,71,77,73,68,96,73,53,29.92,29.92,2,0,9,0.09
2012-9-6,95,79,69,74,70,64,99,77,43,29.92,29.92,7,0,17,0.01
2012-9-7,96,81,69,75,70,66,97,74,42,29.92,29.92,2,0,13,0.00
2012-9-8,78,72,60,73,66,54,93,81,66,29.92,29.92,8,0,19,0.05
2012-9-9,83,67,52,58,54,51,99,69,38,29.92,29.92,2,0,4,0.00
2012-9-10,84,70,57,61,56,52,94,68,37,29.92,29.92,0,0,0,0.00
2012-9-11,89,72,58,64,58,55,94,67,36,29.92,29.92,0,0,2,0.00
2012-9-12,86,73,63,63,58,53,83,63,40,29.92,29.92,3,0,17,0.00
2012-9-13,87,72,60,63,59,56,92,66,40,29.92,29.92,3,0,15,0.00
2012-9-14,86,71,58,67,58,53,94,69,38,29.92,29.92,4,0,10,0.00
2012-9-15,87,73,61,65,60,56,92,67,39,29.92,29.92,4,0,15,0.00
2012-9-16,89,76,66,68,64,60,91,69,41,29.92,29.92,4,0,11,0.00
2012-9-17,84,73,68,72,68,66,99,87,60,29.92,29.92,1,0,8,2.26
2012-9-18,76,67,55,68,62,48,99,86,63,29.92,29.92,8,0,15,0.34
2012-9-19,77,60,45,51,46,40,98,66,31,29.92,29.92,8,1,23,0.00
2012-9-20,72,55,48,59,52,48,99,90,57,29.92,29.92,1,0,2,0.00
2012-9-21,70,66,64,59,58,55,83,75,62,29.92,29.92,0,0,4,0.00
2012-9-22,84,70,56,66,56,43,96,67,30,29.92,29.92,6,0,9,0.00
2012-9-23,76,62,53,52,41,28,88,53,21,29.92,29.92,7,1,15,0.00
2012-9-24,79,59,44,50,42,35,89,60,25,29.92,29.92,5,0,24,0.00
2012-9-25,85,68,53,58,52,47,82,61,36,29.92,29.92,4,0,19,0.00
2012-9-26,87,71,59,62,58,52,87,66,40,29.92,29.92,4,0,15,0.00
2012-9-27,89,73,61,70,64,58,94,76,44,29.92,29.92,9,0,20,0.00
2012-9-28,90,73,63,71,65,60,99,81,43,29.92,29.92,10,0,17,0.00
2012-9-29,78,70,62,68,64,53,96,81,62,29.92,29.92,7,0,14,0.00
2012-9-30,72,64,56,63,58,53,97,83,68,29.92,29.92,5,0,14,0.40
2012-10-1,77,69,62,75,67,62,99,95,83,29.92,29.92,0,0,0,0.79
2012-10-2,64,61,59,62,60,59,99,98,94,29.92,29.92,0,0,0,0.02
2012-10-6,60,54,51,50,47,43,84,77,70,29.92,29.92,8,0,17,0.02
2012-10-7,62,52,46,45,42,36,96,73,40,29.92,29.92,5,0,13,0.08
2012-10-8,60,50,43,49,45,42,99,83,61,29.92,29.92,7,0,20,0.22
2012-10-9,70,52,40,50,45,40,99,81,45,29.92,29.92,3,0,11,0.00
2012-10-10,72,60,47,58,52,46,99,79,59,29.92,29.92,4,0,17,0.00
2012-10-11,70,57,44,56,48,41,92,73,48,29.92,29.92,3,0,18,0.00
2012-10-12,71,64,59,69,60,54,99,89,73,29.92,29.92,0,0,0,0.87
2012-11-2,62,53,49,43,42,40,77,68,49,29.92,29.92,0,0,0,0.61
2012-11-3,84,63,44,58,47,38,91,61,31,29.92,29.92,7,0,23,0.05
2012-11-4,61,52,37,58,45,35,96,79,46,29.92,29.92,4,0,11,0.00
2012-11-5,62,48,36,43,39,33,98,74,43,29.92,29.92,2,0,10,0.01
2012-11-6,52,48,43,48,46,42,99,93,80,29.92,29.92,2,0,4,0.00
2012-11-7,53,45,40,47,42,39,99,90,67,29.92,29.92,6,0,11,0.00
2012-11-8,58,43,35,46,38,34,99,85,52,29.92,29.92,4,0,9,0.00
2012-11-9,69,49,32,50,39,31,99,73,36,29.92,29.92,2,0,8,0.00
2012-11-10,64,49,40,43,40,38,93,73,47,29.92,29.92,0,0,2,0.00
2012-11-11,73,61,48,51,45,37,73,60,33,29.92,29.92,5,1,14,0.00
2012-11-12,63,58,34,58,55,32,96,91,68,29.92,29.92,2,0,14,0.01
2012-11-13,52,41,32,32,27,23,91,61,36,29.92,29.92,7,1,14,0.00
2012-11-14,57,45,34,37,32,26,76,62,43,29.92,29.92,6,0,20,0.05
2012-11-15,60,46,33,42,32,25,93,62,30,29.92,29.92,6,0,16,0.00
2012-11-16,62,48,37,36,30,21,80,54,24,29.92,29.92,4,0,7,0.00
2012-11-17,64,48,35,38,31,25,81,58,27,29.92,29.92,1,0,2,0.00
2012-11-18,66,48,33,37,31,26,92,57,26,29.92,29.92,0,0,0,0.00
2012-11-19,63,43,36,43,34,31,88,74,49,29.92,29.92,0,0,0,0.00
2012-11-20,69,54,41,50,43,40,98,69,38,29.92,29.92,0,0,0,0.00
2012-11-21,70,54,42,49,44,40,96,72,45,29.92,29.92,0,0,0,0.00
2012-11-22,72,53,37,53,42,36,99,72,33,29.92,29.92,0,0,0,0.00
2012-11-23,61,51,41,51,41,26,89,70,38,29.92,29.92,0,0,0,0.00
2012-11-24,46,36,28,32,21,16,73,55,34,29.92,29.92,0,0,0,0.00
2012-11-25,60,41,24,30,22,15,87,54,21,29.92,29.92,0,0,0,0.00
2012-11-26,66,53,36,50,38,22,87,60,39,29.92,29.92,0,0,0,0.12
2012-11-27,54,44,38,52,41,33,99,89,79,29.92,29.92,0,0,0,0.07
2012-11-28,53,40,33,34,29,22,85,67,32,29.92,29.92,0,0,0,0.00
2012-11-29,62,43,28,37,28,19,89,61,23,29.92,29.92,0,0,1,0.00
2012-11-30,66,50,36,47,41,28,93,72,46,29.92,29.92,0,0,1,0.00
2012-12-1,72,55,41,56,47,40,99,76,46,29.92,29.92,0,0,0,0.00
2012-12-2,68,57,54,51,47,45,73,69,54,29.92,29.92,0,0,0,0.00
2012-12-25,53,50,43,51,48,38,96,92,83,29.92,29.92,2,0,2,5.02
2012-12-26,42,35,33,38,30,28,97,84,80,29.92,29.92,2,0,4,0.01
2012-12-27,37,32,30,28,27,26,87,80,68,29.92,29.92,2,0,7,0.00
2012-12-28,43,38,29,42,34,26,97,89,82,29.92,29.92,2,0,4,0.28
2012-12-29,42,36,31,42,30,21,99,82,68,29.92,29.92,7,0,12,0.05
2012-12-30,32,28,26,22,19,17,72,69,65,29.92,29.92,7,1,14,0.00